sensor_id;sensor_type;location;lat;lon;timestamp;P1;durP1;ratioP1;P2;durP2;ratioP2
68196;SDS011;55019;49.382;11.358;2024-03-22T00:02:07;6.70;;;4.60;;
68196;SDS011;55019;49.382;11.358;2024-03-22T00:04:34;6.45;;;3.85;;
68196;SDS011;55019;49.382;11.358;2024-03-22T00:07:01;6.13;;;4.03;;
68196;SDS011;55019;49.382;11.358;2024-03-22T00:09:28;5.78;;;4.55;;
68196;SDS011;55019;49.382;11.358;2024-03-22T00:11:55;7.38;;;4.45;;
68196;SDS011;55019;49.382;11.358;2024-03-22T00:14:29;6.55;;;4.15;;
68196;SDS011;55019;49.382;11.358;2024-03-22T00:16:55;6.90;;;4.28;;
68196;SDS011;55019;49.382;11.358;2024-03-22T00:19:22;7.43;;;4.00;;
68196;SDS011;55019;49.382;11.358;2024-03-22T00:21:50;6.68;;;4.38;;
68196;SDS011;55019;49.382;11.358;2024-03-22T00:24:17;5.28;;;3.83;;
68196;SDS011;55019;49.382;11.358;2024-03-22T00:26:43;7.93;;;4.30;;
68196;SDS011;55019;49.382;11.358;2024-03-22T00:29:14;6.18;;;4.20;;
68196;SDS011;55019;49.382;11.358;2024-03-22T00:31:40;5.90;;;3.80;;
68196;SDS011;55019;49.382;11.358;2024-03-22T00:34:07;6.53;;;3.97;;
68196;SDS011;55019;49.382;11.358;2024-03-22T00:36:33;6.03;;;3.70;;
68196;SDS011;55019;49.382;11.358;2024-03-22T00:38:59;4.85;;;3.42;;
68196;SDS011;55019;49.382;11.358;2024-03-22T00:41:26;5.75;;;3.67;;
68196;SDS011;55019;49.382;11.358;2024-03-22T00:43:52;5.15;;;3.80;;
68196;SDS011;55019;49.382;11.358;2024-03-22T00:46:18;5.78;;;3.88;;
68196;SDS011;55019;49.382;11.358;2024-03-22T00:48:44;5.65;;;3.90;;
68196;SDS011;55019;49.382;11.358;2024-03-22T00:51:10;5.97;;;3.92;;
68196;SDS011;55019;49.382;11.358;2024-03-22T00:53:39;6.68;;;4.43;;
68196;SDS011;55019;49.382;11.358;2024-03-22T00:56:05;6.75;;;3.72;;
68196;SDS011;55019;49.382;11.358;2024-03-22T00:58:31;6.35;;;3.83;;
68196;SDS011;55019;49.382;11.358;2024-03-22T01:00:57;7.32;;;4.03;;
68196;SDS011;55019;49.382;11.358;2024-03-22T01:03:24;5.82;;;3.75;;
68196;SDS011;55019;49.382;11.358;2024-03-22T01:05:50;6.18;;;3.95;;
68196;SDS011;55019;49.382;11.358;2024-03-22T01:08:16;6.10;;;4.18;;
68196;SDS011;55019;49.382;11.358;2024-03-22T01:10:43;5.80;;;3.65;;
68196;SDS011;55019;49.382;11.358;2024-03-22T01:13:09;5.72;;;4.28;;
68196;SDS011;55019;49.382;11.358;2024-03-22T01:15:39;6.88;;;4.20;;
68196;SDS011;55019;49.382;11.358;2024-03-22T01:18:05;6.30;;;3.67;;
68196;SDS011;55019;49.382;11.358;2024-03-22T01:20:31;6.93;;;3.83;;
68196;SDS011;55019;49.382;11.358;2024-03-22T01:22:58;5.53;;;3.50;;
68196;SDS011;55019;49.382;11.358;2024-03-22T01:25:25;8.38;;;4.53;;
68196;SDS011;55019;49.382;11.358;2024-03-22T01:27:53;5.00;;;3.35;;
68196;SDS011;55019;49.382;11.358;2024-03-22T01:30:19;6.90;;;3.90;;
68196;SDS011;55019;49.382;11.358;2024-03-22T01:32:45;5.40;;;3.65;;
68196;SDS011;55019;49.382;11.358;2024-03-22T01:35:10;5.95;;;3.58;;
68196;SDS011;55019;49.382;11.358;2024-03-22T01:37:36;5.22;;;3.22;;
68196;SDS011;55019;49.382;11.358;2024-03-22T01:40:02;5.53;;;3.58;;
68196;SDS011;55019;49.382;11.358;2024-03-22T01:42:29;5.10;;;3.65;;
68196;SDS011;55019;49.382;11.358;2024-03-22T01:44:56;5.45;;;3.20;;
68196;SDS011;55019;49.382;11.358;2024-03-22T01:47:21;8.95;;;5.05;;
68196;SDS011;55019;49.382;11.358;2024-03-22T01:49:48;4.85;;;3.50;;
68196;SDS011;55019;49.382;11.358;2024-03-22T01:52:16;5.18;;;3.58;;
68196;SDS011;55019;49.382;11.358;2024-03-22T01:54:41;5.10;;;3.75;;
68196;SDS011;55019;49.382;11.358;2024-03-22T01:57:08;5.45;;;3.75;;
68196;SDS011;55019;49.382;11.358;2024-03-22T01:59:34;7.80;;;3.78;;
68196;SDS011;55019;49.382;11.358;2024-03-22T02:01:59;6.15;;;3.55;;
68196;SDS011;55019;49.382;11.358;2024-03-22T02:04:25;5.75;;;3.83;;
68196;SDS011;55019;49.382;11.358;2024-03-22T02:06:51;6.05;;;3.47;;
68196;SDS011;55019;49.382;11.358;2024-03-22T02:09:17;6.30;;;3.75;;
68196;SDS011;55019;49.382;11.358;2024-03-22T02:11:43;5.97;;;3.58;;
68196;SDS011;55019;49.382;11.358;2024-03-22T02:14:08;5.85;;;3.38;;
68196;SDS011;55019;49.382;11.358;2024-03-22T02:16:34;8.65;;;4.47;;
68196;SDS011;55019;49.382;11.358;2024-03-22T02:19:00;5.18;;;3.72;;
68196;SDS011;55019;49.382;11.358;2024-03-22T02:21:25;6.13;;;3.58;;
68196;SDS011;55019;49.382;11.358;2024-03-22T02:23:51;8.95;;;4.20;;
68196;SDS011;55019;49.382;11.358;2024-03-22T02:26:17;6.68;;;4.00;;
68196;SDS011;55019;49.382;11.358;2024-03-22T02:28:43;5.47;;;3.60;;
68196;SDS011;55019;49.382;11.358;2024-03-22T02:31:08;7.78;;;4.30;;
68196;SDS011;55019;49.382;11.358;2024-03-22T02:33:34;8.57;;;4.43;;
68196;SDS011;55019;49.382;11.358;2024-03-22T02:36:00;6.88;;;3.92;;
68196;SDS011;55019;49.382;11.358;2024-03-22T02:38:25;10.38;;;4.35;;
68196;SDS011;55019;49.382;11.358;2024-03-22T02:40:52;7.20;;;3.97;;
68196;SDS011;55019;49.382;11.358;2024-03-22T02:43:18;8.85;;;4.32;;
68196;SDS011;55019;49.382;11.358;2024-03-22T02:45:44;7.45;;;3.45;;
68196;SDS011;55019;49.382;11.358;2024-03-22T02:48:11;8.65;;;4.10;;
68196;SDS011;55019;49.382;11.358;2024-03-22T02:50:37;8.27;;;4.40;;
68196;SDS011;55019;49.382;11.358;2024-03-22T02:53:03;7.47;;;3.60;;
68196;SDS011;55019;49.382;11.358;2024-03-22T02:55:29;8.02;;;4.53;;
68196;SDS011;55019;49.382;11.358;2024-03-22T02:57:58;6.85;;;4.00;;
68196;SDS011;55019;49.382;11.358;2024-03-22T03:00:24;8.23;;;3.85;;
68196;SDS011;55019;49.382;11.358;2024-03-22T03:02:50;7.10;;;3.72;;
68196;SDS011;55019;49.382;11.358;2024-03-22T03:05:16;7.95;;;3.47;;
68196;SDS011;55019;49.382;11.358;2024-03-22T03:07:42;7.72;;;3.35;;
68196;SDS011;55019;49.382;11.358;2024-03-22T03:10:07;5.82;;;3.65;;
68196;SDS011;55019;49.382;11.358;2024-03-22T03:12:33;6.05;;;3.25;;
68196;SDS011;55019;49.382;11.358;2024-03-22T03:14:59;6.72;;;3.50;;
68196;SDS011;55019;49.382;11.358;2024-03-22T03:17:25;9.18;;;3.60;;
68196;SDS011;55019;49.382;11.358;2024-03-22T03:19:53;7.43;;;3.83;;
68196;SDS011;55019;49.382;11.358;2024-03-22T03:22:19;7.80;;;4.03;;
68196;SDS011;55019;49.382;11.358;2024-03-22T03:24:45;7.47;;;4.20;;
68196;SDS011;55019;49.382;11.358;2024-03-22T03:27:10;6.90;;;3.90;;
68196;SDS011;55019;49.382;11.358;2024-03-22T03:29:36;6.63;;;3.60;;
68196;SDS011;55019;49.382;11.358;2024-03-22T03:32:02;6.78;;;3.88;;
68196;SDS011;55019;49.382;11.358;2024-03-22T03:34:28;6.13;;;3.65;;
68196;SDS011;55019;49.382;11.358;2024-03-22T03:36:54;7.75;;;3.88;;
68196;SDS011;55019;49.382;11.358;2024-03-22T03:39:19;7.78;;;3.47;;
68196;SDS011;55019;49.382;11.358;2024-03-22T03:41:46;6.65;;;3.90;;
68196;SDS011;55019;49.382;11.358;2024-03-22T03:44:11;7.25;;;3.75;;
68196;SDS011;55019;49.382;11.358;2024-03-22T03:46:37;6.50;;;3.58;;
68196;SDS011;55019;49.382;11.358;2024-03-22T03:49:03;7.57;;;3.53;;
68196;SDS011;55019;49.382;11.358;2024-03-22T03:51:28;7.88;;;4.03;;
68196;SDS011;55019;49.382;11.358;2024-03-22T03:53:54;6.18;;;3.65;;
68196;SDS011;55019;49.382;11.358;2024-03-22T03:56:20;7.15;;;3.90;;
68196;SDS011;55019;49.382;11.358;2024-03-22T03:58:46;8.55;;;4.22;;
68196;SDS011;55019;49.382;11.358;2024-03-22T04:01:12;9.00;;;3.95;;
68196;SDS011;55019;49.382;11.358;2024-03-22T04:03:37;6.47;;;3.38;;
68196;SDS011;55019;49.382;11.358;2024-03-22T04:06:03;6.80;;;3.55;;
68196;SDS011;55019;49.382;11.358;2024-03-22T04:08:29;6.22;;;3.15;;
68196;SDS011;55019;49.382;11.358;2024-03-22T04:10:58;7.47;;;3.83;;
68196;SDS011;55019;49.382;11.358;2024-03-22T04:13:24;5.38;;;3.22;;
68196;SDS011;55019;49.382;11.358;2024-03-22T04:15:51;6.47;;;3.58;;
68196;SDS011;55019;49.382;11.358;2024-03-22T04:18:18;6.47;;;3.38;;
68196;SDS011;55019;49.382;11.358;2024-03-22T04:20:52;6.30;;;3.47;;
68196;SDS011;55019;49.382;11.358;2024-03-22T04:23:22;5.80;;;3.25;;
68196;SDS011;55019;49.382;11.358;2024-03-22T04:25:55;6.88;;;4.13;;
68196;SDS011;55019;49.382;11.358;2024-03-22T04:28:22;8.18;;;4.47;;
68196;SDS011;55019;49.382;11.358;2024-03-22T04:30:59;7.63;;;4.28;;
68196;SDS011;55019;49.382;11.358;2024-03-22T04:33:29;9.43;;;3.90;;
68196;SDS011;55019;49.382;11.358;2024-03-22T04:35:56;8.20;;;3.95;;
68196;SDS011;55019;49.382;11.358;2024-03-22T04:38:23;9.13;;;4.20;;
68196;SDS011;55019;49.382;11.358;2024-03-22T04:40:49;8.30;;;4.05;;
68196;SDS011;55019;49.382;11.358;2024-03-22T04:43:16;7.80;;;4.50;;
68196;SDS011;55019;49.382;11.358;2024-03-22T04:45:42;8.40;;;4.13;;
68196;SDS011;55019;49.382;11.358;2024-03-22T04:48:08;8.75;;;4.57;;
68196;SDS011;55019;49.382;11.358;2024-03-22T04:50:34;7.63;;;4.72;;
68196;SDS011;55019;49.382;11.358;2024-03-22T04:53:01;9.10;;;4.13;;
68196;SDS011;55019;49.382;11.358;2024-03-22T04:55:27;8.48;;;4.13;;
68196;SDS011;55019;49.382;11.358;2024-03-22T04:57:52;9.20;;;5.00;;
68196;SDS011;55019;49.382;11.358;2024-03-22T05:00:18;7.18;;;4.18;;
68196;SDS011;55019;49.382;11.358;2024-03-22T05:02:44;7.82;;;4.00;;
68196;SDS011;55019;49.382;11.358;2024-03-22T05:05:11;7.65;;;3.90;;
68196;SDS011;55019;49.382;11.358;2024-03-22T05:07:37;8.07;;;4.18;;
68196;SDS011;55019;49.382;11.358;2024-03-22T05:10:03;6.43;;;3.85;;
68196;SDS011;55019;49.382;11.358;2024-03-22T05:12:29;8.50;;;4.10;;
68196;SDS011;55019;49.382;11.358;2024-03-22T05:14:55;8.65;;;4.45;;
68196;SDS011;55019;49.382;11.358;2024-03-22T05:17:21;8.13;;;4.45;;
68196;SDS011;55019;49.382;11.358;2024-03-22T05:19:47;8.85;;;4.43;;
68196;SDS011;55019;49.382;11.358;2024-03-22T05:22:12;8.13;;;4.53;;
68196;SDS011;55019;49.382;11.358;2024-03-22T05:24:38;6.38;;;4.13;;
68196;SDS011;55019;49.382;11.358;2024-03-22T05:27:04;8.63;;;4.75;;
68196;SDS011;55019;49.382;11.358;2024-03-22T05:29:30;7.20;;;4.13;;
68196;SDS011;55019;49.382;11.358;2024-03-22T05:31:56;9.82;;;5.35;;
68196;SDS011;55019;49.382;11.358;2024-03-22T05:34:22;10.38;;;4.95;;
68196;SDS011;55019;49.382;11.358;2024-03-22T05:36:48;10.95;;;5.82;;
68196;SDS011;55019;49.382;11.358;2024-03-22T05:39:20;9.20;;;4.55;;
68196;SDS011;55019;49.382;11.358;2024-03-22T05:41:46;10.48;;;5.43;;
68196;SDS011;55019;49.382;11.358;2024-03-22T05:44:11;8.43;;;4.40;;
68196;SDS011;55019;49.382;11.358;2024-03-22T05:46:37;7.78;;;4.65;;
68196;SDS011;55019;49.382;11.358;2024-03-22T05:49:03;7.63;;;4.10;;
68196;SDS011;55019;49.382;11.358;2024-03-22T05:51:28;10.45;;;5.05;;
68196;SDS011;55019;49.382;11.358;2024-03-22T05:53:56;9.80;;;4.80;;
68196;SDS011;55019;49.382;11.358;2024-03-22T05:56:22;9.52;;;4.63;;
68196;SDS011;55019;49.382;11.358;2024-03-22T05:58:48;9.32;;;4.93;;
68196;SDS011;55019;49.382;11.358;2024-03-22T06:01:14;9.18;;;5.25;;
68196;SDS011;55019;49.382;11.358;2024-03-22T06:03:40;8.15;;;4.43;;
68196;SDS011;55019;49.382;11.358;2024-03-22T06:06:05;8.02;;;4.68;;
68196;SDS011;55019;49.382;11.358;2024-03-22T06:08:31;9.75;;;5.32;;
68196;SDS011;55019;49.382;11.358;2024-03-22T06:11:00;9.15;;;4.25;;
68196;SDS011;55019;49.382;11.358;2024-03-22T06:13:26;7.80;;;4.13;;
68196;SDS011;55019;49.382;11.358;2024-03-22T06:15:52;8.55;;;3.92;;
68196;SDS011;55019;49.382;11.358;2024-03-22T06:18:18;9.60;;;4.43;;
68196;SDS011;55019;49.382;11.358;2024-03-22T06:20:44;10.10;;;4.60;;
68196;SDS011;55019;49.382;11.358;2024-03-22T06:23:10;9.20;;;4.65;;
68196;SDS011;55019;49.382;11.358;2024-03-22T06:25:36;8.80;;;5.18;;
68196;SDS011;55019;49.382;11.358;2024-03-22T06:28:02;9.20;;;4.45;;
68196;SDS011;55019;49.382;11.358;2024-03-22T06:30:28;7.35;;;3.53;;
68196;SDS011;55019;49.382;11.358;2024-03-22T06:32:54;10.85;;;5.32;;
68196;SDS011;55019;49.382;11.358;2024-03-22T06:35:21;12.50;;;4.90;;
68196;SDS011;55019;49.382;11.358;2024-03-22T06:37:48;9.77;;;5.00;;
68196;SDS011;55019;49.382;11.358;2024-03-22T06:40:14;10.70;;;5.72;;
68196;SDS011;55019;49.382;11.358;2024-03-22T06:42:45;8.23;;;4.80;;
68196;SDS011;55019;49.382;11.358;2024-03-22T06:45:11;11.35;;;4.93;;
68196;SDS011;55019;49.382;11.358;2024-03-22T06:47:37;10.23;;;5.35;;
68196;SDS011;55019;49.382;11.358;2024-03-22T06:50:06;12.38;;;5.65;;
68196;SDS011;55019;49.382;11.358;2024-03-22T06:52:32;10.88;;;5.72;;
68196;SDS011;55019;49.382;11.358;2024-03-22T06:54:58;13.05;;;5.22;;
68196;SDS011;55019;49.382;11.358;2024-03-22T06:57:24;10.75;;;5.68;;
68196;SDS011;55019;49.382;11.358;2024-03-22T06:59:50;12.00;;;5.95;;
68196;SDS011;55019;49.382;11.358;2024-03-22T07:02:16;13.27;;;6.38;;
68196;SDS011;55019;49.382;11.358;2024-03-22T07:04:43;12.38;;;5.63;;
68196;SDS011;55019;49.382;11.358;2024-03-22T07:07:09;12.02;;;5.82;;
68196;SDS011;55019;49.382;11.358;2024-03-22T07:09:35;11.00;;;5.72;;
68196;SDS011;55019;49.382;11.358;2024-03-22T07:12:01;11.45;;;5.50;;
68196;SDS011;55019;49.382;11.358;2024-03-22T07:14:27;12.88;;;6.18;;
68196;SDS011;55019;49.382;11.358;2024-03-22T07:16:53;10.10;;;5.28;;
68196;SDS011;55019;49.382;11.358;2024-03-22T07:19:21;10.65;;;5.32;;
68196;SDS011;55019;49.382;11.358;2024-03-22T07:21:47;9.32;;;5.13;;
68196;SDS011;55019;49.382;11.358;2024-03-22T07:24:13;11.07;;;6.07;;
68196;SDS011;55019;49.382;11.358;2024-03-22T07:26:39;9.73;;;5.82;;
68196;SDS011;55019;49.382;11.358;2024-03-22T07:29:06;12.15;;;6.18;;
68196;SDS011;55019;49.382;11.358;2024-03-22T07:31:32;11.05;;;5.63;;
68196;SDS011;55019;49.382;11.358;2024-03-22T07:33:59;12.05;;;6.00;;
68196;SDS011;55019;49.382;11.358;2024-03-22T07:36:27;9.60;;;5.20;;
68196;SDS011;55019;49.382;11.358;2024-03-22T07:38:56;10.68;;;5.15;;
68196;SDS011;55019;49.382;11.358;2024-03-22T07:41:25;10.70;;;5.10;;
68196;SDS011;55019;49.382;11.358;2024-03-22T07:44:00;9.10;;;5.15;;
68196;SDS011;55019;49.382;11.358;2024-03-22T07:46:31;10.38;;;5.40;;
68196;SDS011;55019;49.382;11.358;2024-03-22T07:52:26;11.00;;;5.13;;
68196;SDS011;55019;49.382;11.358;2024-03-22T07:54:54;9.65;;;5.05;;
68196;SDS011;55019;49.382;11.358;2024-03-22T07:57:20;10.30;;;4.93;;
68196;SDS011;55019;49.382;11.358;2024-03-22T07:59:46;11.00;;;5.47;;
68196;SDS011;55019;49.382;11.358;2024-03-22T08:02:21;8.60;;;4.75;;
68196;SDS011;55019;49.382;11.358;2024-03-22T08:04:47;10.07;;;5.22;;
68196;SDS011;55019;49.382;11.358;2024-03-22T08:07:14;8.35;;;4.15;;
68196;SDS011;55019;49.382;11.358;2024-03-22T08:09:40;7.55;;;4.05;;
68196;SDS011;55019;49.382;11.358;2024-03-22T08:12:06;8.35;;;4.88;;
68196;SDS011;55019;49.382;11.358;2024-03-22T08:14:32;10.60;;;5.10;;
68196;SDS011;55019;49.382;11.358;2024-03-22T08:16:58;7.70;;;4.40;;
68196;SDS011;55019;49.382;11.358;2024-03-22T08:19:23;8.88;;;4.10;;
68196;SDS011;55019;49.382;11.358;2024-03-22T08:21:49;7.95;;;4.22;;
68196;SDS011;55019;49.382;11.358;2024-03-22T08:24:15;7.40;;;3.75;;
68196;SDS011;55019;49.382;11.358;2024-03-22T08:26:41;8.73;;;4.80;;
68196;SDS011;55019;49.382;11.358;2024-03-22T08:29:10;6.90;;;3.90;;
68196;SDS011;55019;49.382;11.358;2024-03-22T08:31:37;8.88;;;4.82;;
68196;SDS011;55019;49.382;11.358;2024-03-22T08:34:06;9.93;;;5.25;;
68196;SDS011;55019;49.382;11.358;2024-03-22T08:36:37;10.98;;;4.60;;
68196;SDS011;55019;49.382;11.358;2024-03-22T08:39:05;7.88;;;5.15;;
68196;SDS011;55019;49.382;11.358;2024-03-22T08:41:36;12.00;;;5.82;;
68196;SDS011;55019;49.382;11.358;2024-03-22T08:44:06;9.23;;;4.18;;
68196;SDS011;55019;49.382;11.358;2024-03-22T08:46:36;9.70;;;5.50;;
68196;SDS011;55019;49.382;11.358;2024-03-22T08:49:02;13.77;;;5.03;;
68196;SDS011;55019;49.382;11.358;2024-03-22T08:51:28;8.68;;;5.20;;
68196;SDS011;55019;49.382;11.358;2024-03-22T08:53:58;8.63;;;5.28;;
68196;SDS011;55019;49.382;11.358;2024-03-22T08:56:26;8.68;;;4.65;;
68196;SDS011;55019;49.382;11.358;2024-03-22T08:58:53;9.25;;;5.43;;
68196;SDS011;55019;49.382;11.358;2024-03-22T09:01:19;10.32;;;4.45;;
68196;SDS011;55019;49.382;11.358;2024-03-22T09:03:46;10.02;;;5.03;;
68196;SDS011;55019;49.382;11.358;2024-03-22T09:06:12;9.88;;;5.32;;
68196;SDS011;55019;49.382;11.358;2024-03-22T09:08:38;12.27;;;5.70;;
68196;SDS011;55019;49.382;11.358;2024-03-22T09:11:04;9.95;;;6.05;;
68196;SDS011;55019;49.382;11.358;2024-03-22T09:13:30;10.70;;;5.50;;
68196;SDS011;55019;49.382;11.358;2024-03-22T09:15:59;10.27;;;5.40;;
68196;SDS011;55019;49.382;11.358;2024-03-22T09:18:26;9.32;;;5.20;;
68196;SDS011;55019;49.382;11.358;2024-03-22T09:20:52;8.68;;;4.97;;
68196;SDS011;55019;49.382;11.358;2024-03-22T09:23:19;8.95;;;4.57;;
68196;SDS011;55019;49.382;11.358;2024-03-22T09:25:52;10.45;;;5.60;;
68196;SDS011;55019;49.382;11.358;2024-03-22T09:28:21;9.52;;;5.00;;
68196;SDS011;55019;49.382;11.358;2024-03-22T09:30:47;9.75;;;4.78;;
68196;SDS011;55019;49.382;11.358;2024-03-22T09:33:16;11.38;;;5.55;;
68196;SDS011;55019;49.382;11.358;2024-03-22T09:38:13;7.70;;;4.57;;
68196;SDS011;55019;49.382;11.358;2024-03-22T09:40:43;9.48;;;5.25;;
68196;SDS011;55019;49.382;11.358;2024-03-22T09:43:09;8.57;;;5.07;;
68196;SDS011;55019;49.382;11.358;2024-03-22T09:45:41;8.32;;;5.30;;
68196;SDS011;55019;49.382;11.358;2024-03-22T09:48:08;8.77;;;5.50;;
68196;SDS011;55019;49.382;11.358;2024-03-22T09:50:35;7.78;;;5.15;;
68196;SDS011;55019;49.382;11.358;2024-03-22T09:53:06;10.13;;;6.03;;
68196;SDS011;55019;49.382;11.358;2024-03-22T09:55:34;9.13;;;5.68;;
68196;SDS011;55019;49.382;11.358;2024-03-22T09:58:03;7.57;;;4.72;;
68196;SDS011;55019;49.382;11.358;2024-03-22T10:00:32;8.20;;;4.95;;
68196;SDS011;55019;49.382;11.358;2024-03-22T10:02:58;8.32;;;5.03;;
68196;SDS011;55019;49.382;11.358;2024-03-22T10:05:29;8.55;;;5.20;;
68196;SDS011;55019;49.382;11.358;2024-03-22T10:07:56;9.05;;;5.07;;
68196;SDS011;55019;49.382;11.358;2024-03-22T10:10:24;7.28;;;5.07;;
68196;SDS011;55019;49.382;11.358;2024-03-22T10:12:51;7.30;;;4.97;;
68196;SDS011;55019;49.382;11.358;2024-03-22T10:15:20;8.23;;;4.68;;
68196;SDS011;55019;49.382;11.358;2024-03-22T10:17:49;6.70;;;4.32;;
68196;SDS011;55019;49.382;11.358;2024-03-22T10:20:17;7.82;;;5.15;;
68196;SDS011;55019;49.382;11.358;2024-03-22T10:22:48;7.25;;;4.63;;
68196;SDS011;55019;49.382;11.358;2024-03-22T10:25:14;7.22;;;4.63;;
68196;SDS011;55019;49.382;11.358;2024-03-22T10:27:40;9.68;;;4.38;;
68196;SDS011;55019;49.382;11.358;2024-03-22T10:30:10;8.15;;;4.75;;
68196;SDS011;55019;49.382;11.358;2024-03-22T10:32:42;5.95;;;4.28;;
68196;SDS011;55019;49.382;11.358;2024-03-22T10:35:13;8.45;;;4.82;;
68196;SDS011;55019;49.382;11.358;2024-03-22T10:37:40;9.27;;;5.28;;
68196;SDS011;55019;49.382;11.358;2024-03-22T10:40:08;8.43;;;4.80;;
68196;SDS011;55019;49.382;11.358;2024-03-22T10:42:38;5.97;;;4.70;;
68196;SDS011;55019;49.382;11.358;2024-03-22T10:45:06;6.07;;;4.30;;
68196;SDS011;55019;49.382;11.358;2024-03-22T10:47:38;7.28;;;4.57;;
68196;SDS011;55019;49.382;11.358;2024-03-22T10:50:09;7.10;;;4.15;;
68196;SDS011;55019;49.382;11.358;2024-03-22T10:52:41;6.05;;;4.82;;
68196;SDS011;55019;49.382;11.358;2024-03-22T10:55:12;7.18;;;4.75;;
68196;SDS011;55019;49.382;11.358;2024-03-22T10:57:48;5.70;;;4.55;;
68196;SDS011;55019;49.382;11.358;2024-03-22T11:00:14;6.18;;;4.18;;
68196;SDS011;55019;49.382;11.358;2024-03-22T11:02:44;6.10;;;4.65;;
68196;SDS011;55019;49.382;11.358;2024-03-22T11:05:17;6.20;;;4.03;;
68196;SDS011;55019;49.382;11.358;2024-03-22T11:07:46;7.95;;;4.25;;
68196;SDS011;55019;49.382;11.358;2024-03-22T11:10:12;5.43;;;3.50;;
68196;SDS011;55019;49.382;11.358;2024-03-22T11:12:39;5.72;;;3.75;;
68196;SDS011;55019;49.382;11.358;2024-03-22T11:15:05;5.22;;;3.33;;
68196;SDS011;55019;49.382;11.358;2024-03-22T11:17:31;6.97;;;3.78;;
68196;SDS011;55019;49.382;11.358;2024-03-22T11:19:56;6.63;;;3.80;;
68196;SDS011;55019;49.382;11.358;2024-03-22T11:22:25;6.22;;;4.20;;
68196;SDS011;55019;49.382;11.358;2024-03-22T11:24:52;7.30;;;5.13;;
68196;SDS011;55019;49.382;11.358;2024-03-22T11:27:17;6.53;;;4.57;;
68196;SDS011;55019;49.382;11.358;2024-03-22T11:29:44;4.28;;;3.03;;
68196;SDS011;55019;49.382;11.358;2024-03-22T11:32:13;4.70;;;2.80;;
68196;SDS011;55019;49.382;11.358;2024-03-22T11:34:40;3.95;;;3.20;;
68196;SDS011;55019;49.382;11.358;2024-03-22T11:37:06;5.85;;;3.60;;
68196;SDS011;55019;49.382;11.358;2024-03-22T11:39:36;4.95;;;3.72;;
68196;SDS011;55019;49.382;11.358;2024-03-22T11:42:03;4.90;;;3.13;;
68196;SDS011;55019;49.382;11.358;2024-03-22T11:44:31;5.38;;;3.15;;
68196;SDS011;55019;49.382;11.358;2024-03-22T11:46:59;5.57;;;3.53;;
68196;SDS011;55019;49.382;11.358;2024-03-22T11:49:25;4.22;;;3.33;;
68196;SDS011;55019;49.382;11.358;2024-03-22T11:51:51;5.63;;;3.65;;
68196;SDS011;55019;49.382;11.358;2024-03-22T11:54:20;5.28;;;4.18;;
68196;SDS011;55019;49.382;11.358;2024-03-22T11:56:46;5.57;;;3.97;;
68196;SDS011;55019;49.382;11.358;2024-03-22T11:59:12;6.07;;;4.05;;
68196;SDS011;55019;49.382;11.358;2024-03-22T12:01:38;4.32;;;3.53;;
68196;SDS011;55019;49.382;11.358;2024-03-22T12:04:06;5.53;;;4.22;;
68196;SDS011;55019;49.382;11.358;2024-03-22T12:06:36;6.00;;;4.18;;
68196;SDS011;55019;49.382;11.358;2024-03-22T12:09:02;9.13;;;3.67;;
68196;SDS011;55019;49.382;11.358;2024-03-22T12:11:28;5.03;;;3.50;;
68196;SDS011;55019;49.382;11.358;2024-03-22T12:13:54;6.00;;;4.18;;
68196;SDS011;55019;49.382;11.358;2024-03-22T12:16:20;5.30;;;3.67;;
68196;SDS011;55019;49.382;11.358;2024-03-22T12:18:45;4.55;;;3.33;;
68196;SDS011;55019;49.382;11.358;2024-03-22T12:21:11;6.68;;;4.15;;
68196;SDS011;55019;49.382;11.358;2024-03-22T12:23:37;6.20;;;4.93;;
68196;SDS011;55019;49.382;11.358;2024-03-22T12:26:02;6.80;;;4.30;;
68196;SDS011;55019;49.382;11.358;2024-03-22T12:28:28;4.88;;;3.40;;
68196;SDS011;55019;49.382;11.358;2024-03-22T12:30:54;7.28;;;3.95;;
68196;SDS011;55019;49.382;11.358;2024-03-22T12:33:20;5.00;;;3.30;;
68196;SDS011;55019;49.382;11.358;2024-03-22T12:35:45;4.70;;;3.03;;
68196;SDS011;55019;49.382;11.358;2024-03-22T12:38:13;4.65;;;3.05;;
68196;SDS011;55019;49.382;11.358;2024-03-22T12:40:39;4.25;;;2.90;;
68196;SDS011;55019;49.382;11.358;2024-03-22T12:43:07;4.60;;;3.05;;
68196;SDS011;55019;49.382;11.358;2024-03-22T12:45:34;3.95;;;3.00;;
68196;SDS011;55019;49.382;11.358;2024-03-22T12:48:00;5.03;;;3.13;;
68196;SDS011;55019;49.382;11.358;2024-03-22T12:50:26;2.65;;;1.92;;
68196;SDS011;55019;49.382;11.358;2024-03-22T12:52:52;1.48;;;1.33;;
68196;SDS011;55019;49.382;11.358;2024-03-22T12:55:18;2.42;;;1.63;;
68196;SDS011;55019;49.382;11.358;2024-03-22T12:57:43;1.92;;;1.50;;
68196;SDS011;55019;49.382;11.358;2024-03-22T13:00:09;3.83;;;1.65;;
68196;SDS011;55019;49.382;11.358;2024-03-22T13:02:40;2.63;;;1.60;;
68196;SDS011;55019;49.382;11.358;2024-03-22T13:05:06;1.95;;;1.48;;
68196;SDS011;55019;49.382;11.358;2024-03-22T13:07:32;3.17;;;1.90;;
68196;SDS011;55019;49.382;11.358;2024-03-22T13:09:58;3.03;;;1.63;;
68196;SDS011;55019;49.382;11.358;2024-03-22T13:12:25;1.50;;;1.38;;
68196;SDS011;55019;49.382;11.358;2024-03-22T13:14:52;2.15;;;1.70;;
68196;SDS011;55019;49.382;11.358;2024-03-22T13:17:18;2.30;;;1.63;;
68196;SDS011;55019;49.382;11.358;2024-03-22T13:19:44;2.67;;;1.52;;
68196;SDS011;55019;49.382;11.358;2024-03-22T13:22:09;2.47;;;1.67;;
68196;SDS011;55019;49.382;11.358;2024-03-22T13:24:35;2.42;;;1.85;;
68196;SDS011;55019;49.382;11.358;2024-03-22T13:27:01;2.78;;;1.52;;
68196;SDS011;55019;49.382;11.358;2024-03-22T13:29:28;2.13;;;1.60;;
68196;SDS011;55019;49.382;11.358;2024-03-22T13:31:54;2.42;;;1.73;;
68196;SDS011;55019;49.382;11.358;2024-03-22T13:34:19;2.53;;;2.00;;
68196;SDS011;55019;49.382;11.358;2024-03-22T13:36:45;2.60;;;1.88;;
68196;SDS011;55019;49.382;11.358;2024-03-22T13:39:12;3.50;;;1.67;;
68196;SDS011;55019;49.382;11.358;2024-03-22T13:41:41;2.38;;;1.92;;
68196;SDS011;55019;49.382;11.358;2024-03-22T13:44:07;3.22;;;2.03;;
68196;SDS011;55019;49.382;11.358;2024-03-22T13:46:33;3.50;;;2.30;;
68196;SDS011;55019;49.382;11.358;2024-03-22T13:49:12;3.25;;;1.85;;
68196;SDS011;55019;49.382;11.358;2024-03-22T13:51:41;2.50;;;1.75;;
68196;SDS011;55019;49.382;11.358;2024-03-22T13:54:07;3.00;;;1.80;;
68196;SDS011;55019;49.382;11.358;2024-03-22T13:56:32;2.33;;;1.40;;
68196;SDS011;55019;49.382;11.358;2024-03-22T13:58:58;2.33;;;1.90;;
68196;SDS011;55019;49.382;11.358;2024-03-22T14:01:23;2.53;;;1.75;;
68196;SDS011;55019;49.382;11.358;2024-03-22T14:03:49;2.08;;;1.27;;
68196;SDS011;55019;49.382;11.358;2024-03-22T14:06:15;2.63;;;1.30;;
68196;SDS011;55019;49.382;11.358;2024-03-22T14:08:40;2.38;;;1.42;;
68196;SDS011;55019;49.382;11.358;2024-03-22T14:11:06;2.25;;;1.58;;
68196;SDS011;55019;49.382;11.358;2024-03-22T14:13:32;2.67;;;1.55;;
68196;SDS011;55019;49.382;11.358;2024-03-22T14:15:57;3.75;;;1.92;;
68196;SDS011;55019;49.382;11.358;2024-03-22T14:18:23;1.77;;;1.45;;
68196;SDS011;55019;49.382;11.358;2024-03-22T14:20:49;3.47;;;1.50;;
68196;SDS011;55019;49.382;11.358;2024-03-22T14:23:14;3.45;;;1.55;;
68196;SDS011;55019;49.382;11.358;2024-03-22T14:25:40;3.28;;;1.83;;
68196;SDS011;55019;49.382;11.358;2024-03-22T14:28:05;2.60;;;2.03;;
68196;SDS011;55019;49.382;11.358;2024-03-22T14:30:31;2.38;;;2.00;;
68196;SDS011;55019;49.382;11.358;2024-03-22T14:32:57;2.65;;;2.13;;
68196;SDS011;55019;49.382;11.358;2024-03-22T14:35:22;2.78;;;1.95;;
68196;SDS011;55019;49.382;11.358;2024-03-22T14:37:48;3.42;;;2.00;;